createdAt,value
2016-12-29T00:00:33.431Z,0
2016-12-29T00:01:42.893Z,0
2016-12-29T00:02:51.584Z,0
2016-12-29T00:04:01.064Z,0
2016-12-29T00:05:10.172Z,0
2016-12-29T00:06:18.881Z,0
2016-12-29T00:07:28.364Z,0
2016-12-29T00:08:37.077Z,0
2016-12-29T00:09:46.546Z,0
2016-12-29T00:10:55.644Z,0
2016-12-29T00:12:04.346Z,0
2016-12-29T00:13:13.457Z,0
2016-12-29T00:14:22.533Z,0
2016-12-29T00:15:31.992Z,0
2016-12-29T00:16:41.061Z,0
2016-12-29T00:17:49.756Z,0
2016-12-29T00:18:58.846Z,0
2016-12-29T00:20:08.713Z,0
2016-12-29T00:21:17.788Z,0
2016-12-29T00:22:28.039Z,0
2016-12-29T00:23:37.115Z,0
2016-12-29T00:24:46.588Z,0
2016-12-29T00:25:56.072Z,0
2016-12-29T00:27:04.778Z,0
2016-12-29T00:28:13.454Z,0
2016-12-29T00:29:22.537Z,0
2016-12-29T00:30:31.230Z,0
2016-12-29T00:31:40.293Z,0
2016-12-29T00:32:48.978Z,0
2016-12-29T00:33:58.070Z,0
2016-12-29T00:35:07.543Z,0
2016-12-29T00:36:16.231Z,0
2016-12-29T00:37:25.313Z,0
2016-12-29T00:38:34.766Z,0
2016-12-29T00:39:43.473Z,0
2016-12-29T00:40:52.157Z,0
2016-12-29T00:42:01.237Z,0
2016-12-29T00:43:10.329Z,0
2016-12-29T00:44:19.395Z,0
2016-12-29T00:45:28.086Z,0
2016-12-29T00:46:37.545Z,0
2016-12-29T00:47:46.639Z,0
2016-12-29T00:48:55.718Z,0
2016-12-29T00:50:05.170Z,0
2016-12-29T00:51:14.649Z,0
2016-12-29T00:52:23.735Z,0
2016-12-29T00:53:32.823Z,0
2016-12-29T00:54:41.526Z,0
2016-12-29T00:55:50.210Z,0
2016-12-29T00:56:58.885Z,0
2016-12-29T00:58:07.988Z,0
2016-12-29T00:59:17.456Z,0
2016-12-29T01:00:26.153Z,0
2016-12-29T01:01:35.259Z,0
2016-12-29T01:02:45.105Z,0
2016-12-29T01:03:54.563Z,0
2016-12-29T01:05:03.240Z,0
2016-12-29T01:06:12.710Z,0
2016-12-29T01:07:21.398Z,0
2016-12-29T01:08:30.483Z,0
2016-12-29T01:09:39.964Z,0
2016-12-29T01:10:49.031Z,0
2016-12-29T01:11:58.101Z,0
2016-12-29T01:13:07.181Z,0
2016-12-29T01:14:16.249Z,0
2016-12-29T01:15:26.055Z,0
2016-12-29T01:16:35.933Z,0
2016-12-29T01:17:44.626Z,0
2016-12-29T01:18:53.332Z,0
2016-12-29T01:20:02.427Z,0
2016-12-29T01:21:11.504Z,0
2016-12-29T01:22:20.180Z,0
2016-12-29T01:23:29.251Z,0
2016-12-29T01:24:37.930Z,0
2016-12-29T01:25:47.015Z,0
2016-12-29T01:26:56.082Z,0
2016-12-29T01:28:05.565Z,0
2016-12-29T01:29:14.650Z,0
2016-12-29T01:30:23.722Z,0
2016-12-29T01:31:33.178Z,0
2016-12-29T01:32:42.254Z,0
2016-12-29T01:33:50.941Z,0
2016-12-29T01:35:00.043Z,0
2016-12-29T01:36:08.727Z,0
2016-12-29T01:37:17.803Z,0
2016-12-29T01:38:26.866Z,0
2016-12-29T01:39:35.951Z,0
2016-12-29T01:40:44.632Z,0
2016-12-29T01:41:54.084Z,0
2016-12-29T01:43:02.763Z,0
2016-12-29T01:44:11.863Z,0
2016-12-29T01:45:20.540Z,0
2016-12-29T01:46:29.993Z,0
2016-12-29T01:47:39.056Z,0
2016-12-29T01:48:48.131Z,0
2016-12-29T01:49:56.847Z,0
2016-12-29T01:51:05.911Z,0
2016-12-29T01:52:14.581Z,0
2016-12-29T01:53:23.648Z,0
2016-12-29T01:54:32.747Z,0
2016-12-29T01:55:42.229Z,0
2016-12-29T01:56:51.292Z,0
2016-12-29T01:58:00.362Z,0
2016-12-29T01:59:10.215Z,0
2016-12-29T02:00:18.892Z,0
2016-12-29T02:01:27.580Z,0
2016-12-29T02:02:36.266Z,0
2016-12-29T02:03:45.759Z,0
2016-12-29T02:04:54.443Z,0
2016-12-29T02:06:03.526Z,0
2016-12-29T02:07:12.205Z,0
2016-12-29T02:08:21.277Z,0
2016-12-29T02:10:02.813Z,0
2016-12-29T02:11:11.501Z,0
2016-12-29T02:12:20.728Z,0
2016-12-29T02:13:29.811Z,0
2016-12-29T02:14:39.275Z,0
2016-12-29T02:15:48.007Z,0
2016-12-29T02:16:58.135Z,0
2016-12-29T02:18:07.113Z,0
2016-12-29T02:19:16.596Z,0
2016-12-29T02:20:25.674Z,0
2016-12-29T02:21:35.538Z,0
2016-12-29T02:22:44.218Z,0
2016-12-29T02:23:53.641Z,0
2016-12-29T02:25:02.711Z,0
2016-12-29T02:26:12.175Z,0
2016-12-29T02:27:21.254Z,0
2016-12-29T02:28:30.320Z,0
2016-12-29T02:29:40.314Z,0
2016-12-29T02:30:49.376Z,0
2016-12-29T02:31:59.264Z,0
2016-12-29T02:33:08.335Z,0
2016-12-29T02:34:17.819Z,0
2016-12-29T02:35:26.804Z,0
2016-12-29T02:36:35.878Z,0
2016-12-29T02:37:45.330Z,0
2016-12-29T02:38:54.023Z,0
2016-12-29T02:40:03.101Z,0
2016-12-29T02:41:12.861Z,0
2016-12-29T02:42:22.316Z,0
2016-12-29T02:43:32.162Z,0
2016-12-29T02:44:41.223Z,0
2016-12-29T02:45:50.687Z,0
2016-12-29T02:46:59.750Z,0
2016-12-29T02:48:08.820Z,0
2016-12-29T02:49:17.883Z,0
2016-12-29T02:50:26.943Z,0
2016-12-29T02:51:36.791Z,0
2016-12-29T02:52:45.852Z,0
2016-12-29T02:53:55.302Z,0
2016-12-29T02:55:04.388Z,0
2016-12-29T02:56:13.462Z,0
2016-12-29T02:57:22.155Z,0
2016-12-29T02:58:31.133Z,0
2016-12-29T02:59:39.833Z,0
2016-12-29T03:00:49.306Z,0
2016-12-29T03:01:57.984Z,0
2016-12-29T03:03:06.674Z,0
2016-12-29T03:04:15.745Z,0
2016-12-29T03:05:25.198Z,0
2016-12-29T03:06:34.258Z,0
2016-12-29T03:07:43.361Z,0
2016-12-29T03:08:53.228Z,0
2016-12-29T03:10:03.032Z,0
2016-12-29T03:11:12.493Z,0
2016-12-29T03:12:21.196Z,0
2016-12-29T03:13:30.268Z,0
2016-12-29T03:14:39.343Z,0
2016-12-29T03:15:48.423Z,0
2016-12-29T03:16:57.869Z,0
2016-12-29T03:18:06.937Z,0
2016-12-29T03:19:16.386Z,0
2016-12-29T03:20:25.469Z,0
2016-12-29T03:21:34.629Z,0
2016-12-29T03:22:43.313Z,0
2016-12-29T03:23:52.387Z,0
2016-12-29T03:25:01.071Z,0
2016-12-29T03:26:10.525Z,0
2016-12-29T03:27:20.287Z,0
2016-12-29T03:28:28.979Z,0
2016-12-29T03:29:38.437Z,0
2016-12-29T03:30:47.508Z,0
2016-12-29T03:31:56.962Z,0
2016-12-29T03:33:06.018Z,0
2016-12-29T03:34:15.870Z,0
2016-12-29T03:35:24.955Z,0
2016-12-29T03:36:34.025Z,0
2016-12-29T03:37:42.726Z,0
2016-12-29T03:38:52.096Z,0
2016-12-29T03:40:01.192Z,0
2016-12-29T03:41:10.247Z,0
2016-12-29T03:42:19.715Z,0
2016-12-29T03:43:29.175Z,0
2016-12-29T03:44:38.630Z,0
2016-12-29T03:45:47.690Z,0
2016-12-29T03:46:56.774Z,0
2016-12-29T03:48:05.451Z,0
2016-12-29T03:49:14.933Z,0
2016-12-29T03:50:24.288Z,0
2016-12-29T03:51:33.380Z,0
2016-12-29T03:52:42.076Z,0
2016-12-29T03:53:51.151Z,0
2016-12-29T03:55:01.000Z,0
2016-12-29T03:56:09.795Z,0
2016-12-29T03:57:18.478Z,0
2016-12-29T03:58:27.162Z,0
2016-12-29T03:59:36.622Z,0
2016-12-29T04:00:46.902Z,0
2016-12-29T04:01:55.683Z,0
2016-12-29T04:03:04.350Z,0
2016-12-29T04:04:13.848Z,0
2016-12-29T04:05:22.525Z,0
2016-12-29T04:06:31.623Z,0
2016-12-29T04:07:40.298Z,0
2016-12-29T04:08:49.362Z,0
2016-12-29T04:09:58.824Z,0
2016-12-29T04:11:08.280Z,0
2016-12-29T04:12:18.126Z,0
2016-12-29T04:13:26.917Z,0
2016-12-29T04:14:35.619Z,0
2016-12-29T04:15:44.701Z,0
2016-12-29T04:16:54.179Z,0
2016-12-29T04:18:03.267Z,0
2016-12-29T04:19:13.032Z,0
2016-12-29T04:20:21.720Z,0
2016-12-29T04:21:30.394Z,0
2016-12-29T04:22:39.539Z,0
2016-12-29T04:23:48.629Z,0
2016-12-29T04:24:57.429Z,0
2016-12-29T04:26:06.494Z,0
2016-12-29T04:27:15.954Z,0
2016-12-29T04:28:24.630Z,0
2016-12-29T04:29:33.723Z,0
2016-12-29T04:30:43.101Z,0
2016-12-29T04:31:51.804Z,0
2016-12-29T04:33:00.539Z,0
2016-12-29T04:34:10.005Z,0
2016-12-29T04:35:19.080Z,0
2016-12-29T04:36:28.160Z,0
2016-12-29T04:37:36.889Z,0
2016-12-29T04:38:46.731Z,0
2016-12-29T04:39:55.866Z,0
2016-12-29T04:41:04.932Z,0
2016-12-29T04:42:14.000Z,0
2016-12-29T04:43:23.474Z,0
2016-12-29T04:44:33.367Z,0
2016-12-29T04:45:42.442Z,0
2016-12-29T04:46:51.126Z,0
2016-12-29T04:48:00.592Z,0
2016-12-29T04:49:10.085Z,0
2016-12-29T04:50:19.180Z,0
2016-12-29T04:51:28.642Z,4
2016-12-29T04:52:37.343Z,0
2016-12-29T04:53:46.991Z,0
2016-12-29T04:54:56.076Z,0
2016-12-29T04:56:05.551Z,0
2016-12-29T04:57:14.228Z,0
2016-12-29T04:58:22.910Z,0
2016-12-29T04:59:32.128Z,0
2016-12-29T05:00:41.658Z,0
2016-12-29T05:01:51.124Z,0
2016-12-29T05:03:00.191Z,0
2016-12-29T05:04:08.873Z,0
2016-12-29T05:05:17.642Z,0
2016-12-29T05:06:26.738Z,0
2016-12-29T05:07:35.804Z,0
2016-12-29T05:08:44.885Z,0
2016-12-29T05:09:53.952Z,0
2016-12-29T05:11:03.959Z,0
2016-12-29T05:12:13.025Z,0
2016-12-29T05:13:22.099Z,0
2016-12-29T05:14:31.164Z,0
2016-12-29T05:15:40.230Z,0
2016-12-29T05:16:49.298Z,0
2016-12-29T05:17:58.367Z,0
2016-12-29T05:19:07.442Z,0
2016-12-29T05:20:16.523Z,0
2016-12-29T05:21:25.983Z,0
2016-12-29T05:22:35.434Z,0
2016-12-29T05:23:44.506Z,0
2016-12-29T05:24:54.354Z,0
2016-12-29T05:26:04.194Z,0
2016-12-29T05:27:13.650Z,0
2016-12-29T05:28:22.473Z,0
2016-12-29T05:29:31.159Z,0
2016-12-29T05:30:39.883Z,0
2016-12-29T05:31:48.561Z,0
2016-12-29T05:32:57.236Z,0
2016-12-29T05:34:07.243Z,0
2016-12-29T05:35:16.309Z,0
2016-12-29T05:36:25.768Z,0
2016-12-29T05:37:34.830Z,0
2016-12-29T05:38:44.282Z,0
2016-12-29T05:39:53.345Z,0
2016-12-29T05:41:02.409Z,0
2016-12-29T05:42:11.094Z,0
2016-12-29T05:43:20.171Z,0
2016-12-29T05:44:28.860Z,0
2016-12-29T05:45:38.404Z,0
2016-12-29T05:46:47.089Z,0
2016-12-29T05:47:56.533Z,0
2016-12-29T05:49:05.220Z,0
2016-12-29T05:50:14.283Z,0
2016-12-29T05:51:23.649Z,0
2016-12-29T05:52:33.505Z,0
2016-12-29T05:53:42.572Z,0
2016-12-29T05:54:51.253Z,0
2016-12-29T05:56:00.695Z,0
2016-12-29T05:57:09.901Z,0
2016-12-29T05:58:19.740Z,0
2016-12-29T05:59:29.185Z,0
2016-12-29T06:00:38.251Z,0
2016-12-29T06:01:47.324Z,0
2016-12-29T06:02:56.738Z,0
2016-12-29T06:04:05.816Z,0
2016-12-29T06:05:14.500Z,0
2016-12-29T06:06:23.562Z,0
2016-12-29T06:07:32.229Z,0
2016-12-29T06:08:41.469Z,0
2016-12-29T06:09:50.924Z,0
2016-12-29T06:10:59.990Z,0
2016-12-29T06:12:09.080Z,0
2016-12-29T06:13:17.753Z,0
2016-12-29T06:14:26.928Z,0
2016-12-29T06:15:36.769Z,0
2016-12-29T06:16:45.833Z,0
2016-12-29T06:17:54.900Z,0
2016-12-29T06:19:03.969Z,0
2016-12-29T06:20:13.802Z,0
2016-12-29T06:21:23.255Z,0
2016-12-29T06:22:33.111Z,0
2016-12-29T06:23:42.170Z,0
2016-12-29T06:24:51.232Z,0
2016-12-29T06:26:00.410Z,0
2016-12-29T06:27:09.859Z,0
2016-12-29T06:28:18.943Z,0
2016-12-29T06:29:27.627Z,0
2016-12-29T06:30:36.301Z,0
2016-12-29T06:31:44.967Z,0
2016-12-29T06:32:54.050Z,0
2016-12-29T06:34:03.508Z,0
2016-12-29T06:35:12.949Z,0
2016-12-29T06:36:21.622Z,0
2016-12-29T06:37:31.043Z,0
2016-12-29T06:38:40.141Z,0
2016-12-29T06:39:48.814Z,0
2016-12-29T06:40:57.483Z,0
2016-12-29T06:42:06.275Z,0
2016-12-29T06:43:15.884Z,0
2016-12-29T06:44:24.573Z,0
2016-12-29T06:45:34.426Z,0
2016-12-29T06:46:43.894Z,0
2016-12-29T06:47:52.956Z,0
2016-12-29T06:49:02.800Z,0
2016-12-29T06:50:11.476Z,0
2016-12-29T06:51:20.537Z,0
2016-12-29T06:52:29.604Z,0
2016-12-29T06:53:38.658Z,0
2016-12-29T06:54:47.718Z,0
2016-12-29T06:55:56.386Z,0
2016-12-29T06:57:05.857Z,0
2016-12-29T06:58:14.520Z,0
2016-12-29T06:59:23.183Z,0
2016-12-29T07:00:33.326Z,0
2016-12-29T07:01:42.775Z,0
2016-12-29T07:02:52.648Z,0
2016-12-29T07:04:02.097Z,0
2016-12-29T07:05:10.766Z,4
2016-12-29T07:06:19.836Z,4
2016-12-29T07:07:28.905Z,0
2016-12-29T07:08:37.583Z,4
2016-12-29T07:09:46.652Z,4
2016-12-29T07:10:55.721Z,4
2016-12-29T07:12:05.265Z,4
2016-12-29T07:13:15.102Z,8
2016-12-29T07:14:24.548Z,4
2016-12-29T07:15:33.620Z,8
2016-12-29T07:16:42.302Z,8
2016-12-29T07:17:51.366Z,8
2016-12-29T07:19:00.822Z,12
2016-12-29T07:20:10.283Z,12
2016-12-29T07:23:51.854Z,16
2016-12-29T07:25:01.331Z,20
2016-12-29T07:26:10.015Z,20
2016-12-29T07:27:19.482Z,24
2016-12-29T07:28:29.320Z,28
2016-12-29T07:29:38.344Z,32
2016-12-29T07:30:47.409Z,36
2016-12-29T07:31:56.473Z,40
2016-12-29T07:33:06.329Z,40
2016-12-29T07:34:16.184Z,48
2016-12-29T07:35:25.389Z,52
2016-12-29T07:36:34.067Z,56
2016-12-29T07:37:43.525Z,56
2016-12-29T07:38:52.631Z,64
2016-12-29T07:40:02.082Z,68
2016-12-29T07:41:12.236Z,72
2016-12-29T07:42:22.079Z,80
2016-12-29T07:43:31.560Z,88
2016-12-29T07:44:40.635Z,92
2016-12-29T07:45:50.143Z,96
2016-12-29T07:46:59.233Z,100
2016-12-29T07:48:07.907Z,108
2016-12-29T07:49:16.983Z,112
2016-12-29T07:50:26.360Z,120
2016-12-29T07:51:35.045Z,128
2016-12-29T07:52:44.220Z,132
2016-12-29T07:53:53.290Z,136
2016-12-29T07:55:01.972Z,144
2016-12-29T07:56:11.822Z,148
2016-12-29T07:57:20.504Z,156
2016-12-29T07:58:30.314Z,160
2016-12-29T07:59:40.157Z,168
2016-12-29T08:00:49.600Z,172
2016-12-29T08:01:59.049Z,180
2016-12-29T08:03:07.739Z,184
2016-12-29T08:04:16.519Z,188
2016-12-29T08:05:25.636Z,196
2016-12-29T08:06:35.098Z,200
2016-12-29T08:07:44.166Z,204
2016-12-29T08:08:53.238Z,212
2016-12-29T08:10:02.446Z,216
2016-12-29T08:11:11.515Z,224
2016-12-29T08:12:20.582Z,228
2016-12-29T08:13:29.259Z,236
2016-12-29T08:14:37.938Z,236
2016-12-29T08:15:47.574Z,244
2016-12-29T08:16:56.640Z,248
2016-12-29T08:18:06.483Z,252
2016-12-29T08:19:15.545Z,256
2016-12-29T08:20:24.614Z,260
2016-12-29T08:21:34.041Z,264
2016-12-29T08:22:43.787Z,268
2016-12-29T08:23:53.254Z,276
2016-12-29T08:25:02.397Z,276
2016-12-29T08:26:12.232Z,280
2016-12-29T08:27:21.211Z,288
2016-12-29T08:28:29.900Z,292
2016-12-29T08:29:40.051Z,296
2016-12-29T08:30:49.163Z,296
2016-12-29T08:31:58.225Z,300
2016-12-29T08:33:07.055Z,308
2016-12-29T08:34:15.721Z,308
2016-12-29T08:35:24.809Z,312
2016-12-29T08:36:33.876Z,316
2016-12-29T08:37:42.939Z,320
2016-12-29T08:38:52.162Z,320
2016-12-29T08:40:01.606Z,328
2016-12-29T08:41:10.286Z,328
2016-12-29T08:42:19.348Z,332
2016-12-29T08:43:28.414Z,332
2016-12-29T08:44:37.627Z,336
2016-12-29T08:45:46.323Z,340
2016-12-29T08:46:55.389Z,340
2016-12-29T08:48:04.059Z,344
2016-12-29T08:49:13.141Z,352
2016-12-29T08:50:22.512Z,348
2016-12-29T08:51:31.636Z,352
2016-12-29T08:52:40.313Z,356
2016-12-29T08:53:49.021Z,356
2016-12-29T08:54:58.109Z,356
2016-12-29T08:56:08.114Z,356
2016-12-29T08:57:16.804Z,360
2016-12-29T08:58:25.876Z,364
2016-12-29T08:59:34.947Z,372
2016-12-29T09:00:44.419Z,380
2016-12-29T09:01:53.780Z,380
2016-12-29T09:03:02.844Z,380
2016-12-29T09:04:11.921Z,376
2016-12-29T09:05:21.754Z,380
2016-12-29T09:06:30.423Z,384
2016-12-29T09:07:39.642Z,388
2016-12-29T09:08:48.727Z,388
2016-12-29T09:09:57.414Z,384
2016-12-29T09:11:06.865Z,392
2016-12-29T09:12:15.541Z,392
2016-12-29T09:13:24.220Z,392
2016-12-29T09:14:33.287Z,388
2016-12-29T09:15:42.738Z,392
2016-12-29T09:16:51.804Z,392
2016-12-29T09:18:00.874Z,392
2016-12-29T09:19:09.850Z,392
2016-12-29T09:20:18.923Z,396
2016-12-29T09:21:27.995Z,396
2016-12-29T09:22:37.454Z,396
2016-12-29T09:23:46.147Z,396
2016-12-29T09:24:54.994Z,400
2016-12-29T09:26:03.663Z,400
2016-12-29T09:27:13.192Z,400
2016-12-29T09:28:21.904Z,400
2016-12-29T09:29:31.354Z,400
2016-12-29T09:30:40.041Z,400
2016-12-29T09:31:49.162Z,404
2016-12-29T09:32:58.223Z,400
2016-12-29T09:34:07.693Z,408
2016-12-29T09:35:17.153Z,408
2016-12-29T09:36:26.529Z,408
2016-12-29T09:37:35.645Z,408
2016-12-29T09:38:44.742Z,404
2016-12-29T09:39:53.812Z,408
2016-12-29T09:41:02.901Z,412
2016-12-29T09:42:12.055Z,412
2016-12-29T09:43:21.536Z,412
2016-12-29T09:44:30.234Z,412
2016-12-29T09:45:39.414Z,412
2016-12-29T09:46:48.094Z,416
2016-12-29T09:47:57.304Z,412
2016-12-29T09:49:06.407Z,416
2016-12-29T09:50:15.489Z,420
2016-12-29T09:51:24.978Z,420
2016-12-29T09:52:34.826Z,424
2016-12-29T09:53:43.906Z,424
2016-12-29T09:54:53.380Z,424
2016-12-29T09:56:02.870Z,424
2016-12-29T09:57:12.786Z,428
2016-12-29T09:58:23.018Z,428
2016-12-29T09:59:32.253Z,428
2016-12-29T10:00:42.137Z,428
2016-12-29T10:01:51.619Z,428
2016-12-29T10:03:01.085Z,436
2016-12-29T10:04:09.818Z,432
2016-12-29T10:05:19.101Z,432
2016-12-29T10:06:28.567Z,436
2016-12-29T10:07:37.632Z,436
2016-12-29T10:08:46.723Z,436
2016-12-29T10:09:55.402Z,440
2016-12-29T10:11:04.195Z,448
2016-12-29T10:12:13.314Z,448
2016-12-29T10:13:22.435Z,452
2016-12-29T10:14:31.529Z,456
2016-12-29T10:15:41.415Z,456
2016-12-29T10:16:50.838Z,456
2016-12-29T10:17:59.547Z,460
2016-12-29T10:19:08.659Z,464
2016-12-29T10:20:17.769Z,464
2016-12-29T10:21:26.866Z,468
2016-12-29T10:22:35.944Z,476
2016-12-29T10:23:44.628Z,480
2016-12-29T10:24:54.474Z,480
2016-12-29T10:26:03.178Z,484
2016-12-29T10:27:12.652Z,484
2016-12-29T10:28:21.748Z,484
2016-12-29T10:29:30.828Z,488
2016-12-29T10:30:39.517Z,488
2016-12-29T10:31:48.610Z,484
2016-12-29T10:32:58.139Z,480
2016-12-29T10:34:07.958Z,480
2016-12-29T10:35:17.034Z,476
2016-12-29T10:36:25.713Z,476
2016-12-29T10:37:34.440Z,480
2016-12-29T10:38:43.510Z,480
2016-12-29T10:39:52.586Z,480
2016-12-29T10:41:01.274Z,484
2016-12-29T10:42:10.360Z,484
2016-12-29T10:43:20.636Z,488
2016-12-29T10:44:29.337Z,492
2016-12-29T10:45:38.906Z,492
2016-12-29T10:46:48.375Z,492
2016-12-29T10:47:57.454Z,492
2016-12-29T10:49:06.531Z,496
2016-12-29T10:50:16.788Z,496
2016-12-29T10:51:25.854Z,500
2016-12-29T10:52:35.704Z,496
2016-12-29T10:53:44.385Z,496
2016-12-29T10:54:53.454Z,496
2016-12-29T10:56:02.164Z,504
2016-12-29T10:57:11.002Z,504
2016-12-29T10:58:20.468Z,512
2016-12-29T10:59:29.954Z,512
2016-12-29T11:00:39.027Z,512
2016-12-29T11:01:47.774Z,516
2016-12-29T11:02:57.153Z,520
2016-12-29T11:04:05.840Z,524
2016-12-29T11:05:14.936Z,532
2016-12-29T11:06:24.401Z,536
2016-12-29T11:07:33.087Z,536
2016-12-29T11:08:42.158Z,540
2016-12-29T11:09:50.843Z,540
2016-12-29T11:10:59.911Z,540
2016-12-29T11:12:09.372Z,544
2016-12-29T11:13:18.456Z,544
2016-12-29T11:14:27.250Z,544
2016-12-29T11:15:36.720Z,548
2016-12-29T11:16:46.185Z,548
2016-12-29T11:17:55.257Z,548
2016-12-29T11:19:03.935Z,536
2016-12-29T11:20:13.421Z,480
2016-12-29T11:21:22.116Z,444
2016-12-29T11:22:30.814Z,448
2016-12-29T11:23:40.619Z,444
2016-12-29T11:24:50.232Z,444
2016-12-29T11:25:59.432Z,444
2016-12-29T11:27:08.531Z,444
2016-12-29T11:28:17.605Z,444
2016-12-29T11:29:26.298Z,432
2016-12-29T11:30:35.002Z,432
2016-12-29T11:31:43.799Z,428
2016-12-29T11:32:52.475Z,432
2016-12-29T11:34:01.576Z,432
2016-12-29T11:35:10.399Z,432
2016-12-29T11:36:19.878Z,432
2016-12-29T11:37:29.349Z,432
2016-12-29T11:38:38.879Z,432
2016-12-29T11:39:48.047Z,432
2016-12-29T11:40:57.506Z,432
2016-12-29T11:42:06.606Z,432
2016-12-29T11:43:16.173Z,436
2016-12-29T11:44:24.888Z,436
2016-12-29T11:45:33.577Z,436
2016-12-29T11:46:42.265Z,436
2016-12-29T11:47:50.975Z,436
2016-12-29T11:49:00.167Z,436
2016-12-29T11:50:09.767Z,436
2016-12-29T11:51:19.203Z,436
2016-12-29T11:52:29.389Z,440
2016-12-29T11:53:38.474Z,440
2016-12-29T11:54:47.704Z,440
2016-12-29T11:55:57.246Z,440
2016-12-29T11:57:06.057Z,440
2016-12-29T11:58:14.738Z,440
2016-12-29T11:59:23.818Z,444
2016-12-29T12:00:33.180Z,444
2016-12-29T12:01:42.632Z,444
2016-12-29T12:02:51.729Z,444
2016-12-29T12:04:00.840Z,448
2016-12-29T12:05:10.167Z,444
2016-12-29T12:06:19.658Z,448
2016-12-29T12:07:28.460Z,448
2016-12-29T12:08:38.370Z,452
2016-12-29T12:09:47.314Z,452
2016-12-29T12:10:56.171Z,452
2016-12-29T12:12:04.969Z,456
2016-12-29T12:13:14.468Z,456
2016-12-29T12:14:23.630Z,460
2016-12-29T12:15:33.105Z,460
2016-12-29T12:16:42.589Z,464
2016-12-29T12:17:51.327Z,460
2016-12-29T12:19:00.950Z,460
2016-12-29T12:20:10.714Z,464
2016-12-29T12:21:19.809Z,464
2016-12-29T12:22:28.881Z,460
2016-12-29T12:23:38.055Z,464
2016-12-29T12:24:47.127Z,464
2016-12-29T12:25:56.282Z,464
2016-12-29T12:27:05.362Z,468
2016-12-29T12:28:14.823Z,468
2016-12-29T12:29:24.003Z,472
2016-12-29T12:30:33.499Z,472
2016-12-29T12:31:42.258Z,472
2016-12-29T12:32:51.327Z,476
2016-12-29T12:34:00.403Z,476
2016-12-29T12:35:09.443Z,476
2016-12-29T12:36:18.546Z,480
2016-12-29T12:37:27.637Z,480
2016-12-29T12:38:37.484Z,484
2016-12-29T12:39:46.578Z,480
2016-12-29T12:40:55.840Z,484
2016-12-29T12:42:04.545Z,484
2016-12-29T12:43:13.277Z,484
2016-12-29T12:44:22.351Z,488
2016-12-29T12:45:31.054Z,488
2016-12-29T12:46:40.429Z,488
2016-12-29T12:47:50.309Z,484
2016-12-29T12:48:59.825Z,488
2016-12-29T12:50:08.561Z,492
2016-12-29T12:51:17.731Z,488
2016-12-29T12:52:27.032Z,492
2016-12-29T12:53:36.119Z,492
2016-12-29T12:54:44.821Z,488
2016-12-29T12:55:54.760Z,492
2016-12-29T12:57:03.621Z,492
2016-12-29T12:58:13.008Z,492
2016-12-29T12:59:22.084Z,496
2016-12-29T13:00:30.792Z,496
2016-12-29T13:01:39.478Z,496
2016-12-29T13:02:48.549Z,500
2016-12-29T13:03:57.929Z,496
2016-12-29T13:05:06.762Z,504
2016-12-29T13:06:16.659Z,504
2016-12-29T13:07:25.337Z,508
2016-12-29T13:08:34.118Z,508
2016-12-29T13:09:43.559Z,512
2016-12-29T13:10:52.671Z,508
2016-12-29T13:12:02.469Z,508
2016-12-29T13:13:11.572Z,508
2016-12-29T13:14:20.678Z,508
2016-12-29T13:15:30.263Z,512
2016-12-29T13:16:39.734Z,512
2016-12-29T13:17:49.566Z,512
2016-12-29T13:18:58.729Z,512
2016-12-29T13:20:08.197Z,512
2016-12-29T13:21:17.668Z,512
2016-12-29T13:22:26.817Z,516
2016-12-29T13:23:35.894Z,516
2016-12-29T13:24:44.971Z,516
2016-12-29T13:25:53.675Z,516
2016-12-29T13:27:03.580Z,512
2016-12-29T13:28:13.061Z,516
2016-12-29T13:29:22.524Z,512
2016-12-29T13:30:31.613Z,512
2016-12-29T13:31:41.111Z,508
2016-12-29T13:32:50.492Z,508
2016-12-29T13:33:59.179Z,508
2016-12-29T13:35:09.041Z,504
2016-12-29T13:36:18.957Z,500
2016-12-29T13:37:27.667Z,500
2016-12-29T13:38:36.747Z,504
2016-12-29T13:39:46.896Z,500
2016-12-29T13:40:56.006Z,500
2016-12-29T13:42:05.468Z,496
2016-12-29T13:43:14.932Z,496
2016-12-29T13:44:23.975Z,492
2016-12-29T13:45:32.660Z,496
2016-12-29T13:46:41.756Z,492
2016-12-29T13:47:50.435Z,488
2016-12-29T13:48:59.120Z,488
2016-12-29T13:50:08.552Z,484
2016-12-29T13:51:18.028Z,484
2016-12-29T13:52:27.503Z,480
2016-12-29T13:53:36.185Z,480
2016-12-29T13:54:45.275Z,476
2016-12-29T13:55:54.655Z,476
2016-12-29T13:57:03.382Z,472
2016-12-29T13:58:12.471Z,468
2016-12-29T13:59:21.546Z,468
2016-12-29T14:00:31.407Z,464
2016-12-29T14:01:40.872Z,464
2016-12-29T14:02:49.568Z,464
2016-12-29T14:03:59.062Z,424
2016-12-29T14:05:08.189Z,344
2016-12-29T14:06:17.673Z,340
2016-12-29T14:07:26.713Z,340
2016-12-29T14:08:35.804Z,340
2016-12-29T14:09:44.888Z,336
2016-12-29T14:10:54.345Z,336
2016-12-29T14:12:03.810Z,336
2016-12-29T14:13:12.980Z,328
2016-12-29T14:14:22.440Z,328
2016-12-29T14:15:31.895Z,328
2016-12-29T14:16:40.971Z,324
2016-12-29T14:17:49.746Z,320
2016-12-29T14:18:58.431Z,320
2016-12-29T14:20:07.124Z,316
2016-12-29T14:21:16.205Z,316
2016-12-29T14:22:25.280Z,312
2016-12-29T14:23:35.143Z,308
2016-12-29T14:24:44.774Z,308
2016-12-29T14:25:53.843Z,304
2016-12-29T14:27:03.313Z,304
2016-12-29T14:28:12.419Z,300
2016-12-29T14:29:21.480Z,296
2016-12-29T14:30:30.476Z,296
2016-12-29T14:31:40.397Z,292
2016-12-29T14:32:49.475Z,288
2016-12-29T14:33:58.187Z,288
2016-12-29T14:35:08.041Z,280
2016-12-29T14:36:17.268Z,280
2016-12-29T14:37:25.955Z,280
2016-12-29T14:38:34.696Z,272
2016-12-29T14:39:43.383Z,272
2016-12-29T14:40:52.207Z,264
2016-12-29T14:42:02.417Z,264
2016-12-29T14:43:11.110Z,260
2016-12-29T14:44:20.185Z,260
2016-12-29T14:45:29.243Z,252
2016-12-29T14:46:38.331Z,248
2016-12-29T14:47:47.357Z,244
2016-12-29T14:48:57.207Z,244
2016-12-29T14:50:06.273Z,240
2016-12-29T14:51:15.347Z,236
2016-12-29T14:52:24.417Z,232
2016-12-29T14:53:33.847Z,228
2016-12-29T14:54:43.701Z,224
2016-12-29T14:55:52.396Z,220
2016-12-29T14:57:01.546Z,212
2016-12-29T14:58:10.619Z,208
2016-12-29T14:59:19.689Z,204
2016-12-29T15:00:28.775Z,200
2016-12-29T15:01:37.860Z,196
2016-12-29T15:02:47.200Z,188
2016-12-29T15:03:56.801Z,184
2016-12-29T15:05:06.343Z,180
2016-12-29T15:06:15.519Z,172
2016-12-29T15:07:24.604Z,168
2016-12-29T15:08:33.313Z,164
2016-12-29T15:09:42.413Z,156
2016-12-29T15:10:52.224Z,152
2016-12-29T15:12:02.414Z,148
2016-12-29T15:13:11.494Z,140
2016-12-29T15:14:20.574Z,136
2016-12-29T15:15:29.271Z,132
2016-12-29T15:16:38.679Z,124
2016-12-29T15:17:47.896Z,120
2016-12-29T15:18:57.379Z,112
2016-12-29T15:20:07.238Z,108
2016-12-29T15:21:15.946Z,100
2016-12-29T15:22:25.704Z,96
2016-12-29T15:23:34.391Z,92
2016-12-29T15:24:43.460Z,84
2016-12-29T15:25:52.556Z,80
2016-12-29T15:27:01.649Z,76
2016-12-29T15:28:10.858Z,68
2016-12-29T15:29:19.539Z,64
2016-12-29T15:30:28.994Z,60
2016-12-29T15:31:38.066Z,56
2016-12-29T15:32:46.754Z,48
2016-12-29T15:33:56.122Z,44
2016-12-29T15:35:05.974Z,44
2016-12-29T15:36:15.833Z,36
2016-12-29T15:37:25.291Z,32
2016-12-29T15:38:34.360Z,32
2016-12-29T15:39:43.046Z,28
2016-12-29T15:40:52.905Z,24
2016-12-29T15:42:02.365Z,20
2016-12-29T15:43:11.822Z,16
2016-12-29T15:44:20.895Z,16
2016-12-29T15:45:30.508Z,12
2016-12-29T15:46:39.608Z,12
2016-12-29T15:47:48.707Z,12
2016-12-29T15:48:57.376Z,12
2016-12-29T15:50:06.443Z,8
2016-12-29T15:51:15.825Z,8
2016-12-29T15:52:24.891Z,4
2016-12-29T15:53:33.960Z,4
2016-12-29T15:54:43.024Z,4
2016-12-29T15:55:52.102Z,4
2016-12-29T15:57:01.858Z,4
2016-12-29T15:58:10.937Z,0
2016-12-29T15:59:19.609Z,4
2016-12-29T16:00:28.681Z,4
2016-12-29T16:01:37.742Z,0
2016-12-29T16:02:46.426Z,0
2016-12-29T16:03:55.127Z,0
2016-12-29T16:05:03.815Z,0
2016-12-29T16:06:13.273Z,0
2016-12-29T16:07:21.965Z,0
2016-12-29T16:08:31.781Z,0
2016-12-29T16:09:40.451Z,0
2016-12-29T16:10:49.534Z,0
2016-12-29T16:11:58.211Z,0
2016-12-29T16:13:07.281Z,0
2016-12-29T16:14:16.847Z,0
2016-12-29T16:15:26.299Z,0
2016-12-29T16:16:34.971Z,0
2016-12-29T16:17:44.815Z,0
2016-12-29T16:18:53.885Z,0
2016-12-29T16:20:02.657Z,0
2016-12-29T16:21:12.160Z,0
2016-12-29T16:22:20.843Z,0
2016-12-29T16:23:30.304Z,0
2016-12-29T16:24:39.374Z,0
2016-12-29T16:25:48.784Z,0
2016-12-29T16:26:57.857Z,4
2016-12-29T16:28:06.926Z,0
2016-12-29T16:29:16.781Z,0
2016-12-29T16:30:26.312Z,0